Time;durP1;ratioP1;P1;durP2;ratioP2;P2;SDS_P1;SDS_P2;PMS_P1;PMS_P2;Temp;Humidity;BMP_temperature;BMP_pressure;BME280_temperature;BME280_humidity;BME280_pressure;Samples;Min_cycle;Max_cycle;Signal;HPM_P1;HPM_P2
2022/06/30 00:01:39;;;;;;;3.42;2.80;;;24.10;59.90;;;;;;5041062;28;20410;-72
2022/06/30 00:04:06;;;;;;;3.22;2.92;;;24.10;60.00;;;;;;5050490;28;20127;-73
2022/06/30 00:06:33;;;;;;;3.22;2.92;;;24.10;60.00;;;;;;5050541;28;20049;-73
2022/06/30 00:09:01;;;;;;;3.10;2.80;;;24.10;60.00;;;;;;5050632;28;20052;-73
2022/06/30 00:11:27;;;;;;;2.97;2.67;;;24.10;60.00;;;;;;5050504;28;20139;-73
2022/06/30 00:13:54;;;;;;;2.80;2.60;;;24.00;59.90;;;;;;5060494;28;20416;-73
2022/06/30 00:16:21;;;;;;;2.70;2.50;;;24.00;60.00;;;;;;5069522;28;20048;-73
2022/06/30 00:18:48;;;;;;;3.00;2.70;;;24.00;59.90;;;;;;5050645;28;20059;-73
2022/06/30 00:21:14;;;;;;;3.53;2.80;;;24.00;60.00;;;;;;5049631;28;20060;-73
2022/06/30 00:23:41;;;;;;;4.13;2.67;;;24.00;60.00;;;;;;5051177;28;20045;-73
2022/06/30 00:26:09;;;;;;;3.10;2.65;;;24.00;60.00;;;;;;5051674;28;20076;-73
2022/06/30 00:28:36;;;;;;;3.42;2.70;;;24.00;60.00;;;;;;5050078;28;20147;-73
2022/06/30 00:31:03;;;;;;;3.15;2.85;;;23.90;60.00;;;;;;5050511;28;20107;-73
2022/06/30 00:33:30;;;;;;;3.13;2.65;;;24.00;60.00;;;;;;5069823;28;20150;-73
2022/06/30 00:35:56;;;;;;;2.95;2.65;;;24.00;60.00;;;;;;5069817;28;20054;-73
2022/06/30 00:38:23;;;;;;;3.20;2.63;;;23.90;60.00;;;;;;5070044;28;20063;-73
2022/06/30 00:40:50;;;;;;;3.17;2.70;;;23.90;60.00;;;;;;5069985;28;20055;-73
2022/06/30 00:43:18;;;;;;;2.60;2.40;;;23.90;60.00;;;;;;5070567;28;20052;-73
2022/06/30 00:45:45;;;;;;;2.70;2.50;;;23.90;60.00;;;;;;5065760;28;20055;-73
2022/06/30 00:48:12;;;;;;;2.92;2.60;;;23.90;60.00;;;;;;5059715;28;20058;-72
2022/06/30 00:50:39;;;;;;;2.70;2.50;;;23.90;60.00;;;;;;5070784;28;20128;-73
2022/06/30 00:53:06;;;;;;;3.03;2.72;;;23.90;60.00;;;;;;5069685;28;20058;-73
2022/06/30 00:55:33;;;;;;;2.60;2.30;;;23.90;60.00;;;;;;5069342;28;20062;-73
2022/06/30 00:58:01;;;;;;;2.88;2.42;;;23.90;60.10;;;;;;5069415;28;20056;-73
2022/06/30 01:00:29;;;;;;;2.90;2.60;;;23.90;60.10;;;;;;5068609;28;20048;-73
2022/06/30 01:02:56;;;;;;;3.00;2.70;;;23.90;60.10;;;;;;5068943;28;20135;-73
2022/06/30 01:05:23;;;;;;;3.03;2.60;;;23.80;60.00;;;;;;5069611;28;20059;-73
2022/06/30 01:07:49;;;;;;;2.90;2.53;;;23.90;60.10;;;;;;5069408;28;20485;-73
2022/06/30 01:13:01;;;;;;;2.53;2.33;;;23.80;60.10;;;;;;5069466;28;20401;-73
2022/06/30 01:15:29;;;;;;;3.17;2.40;;;23.80;60.10;;;;;;5068165;28;20128;-73
2022/06/30 01:17:56;;;;;;;3.42;2.50;;;23.80;60.10;;;;;;5069364;28;20720;-73
2022/06/30 01:20:26;;;;;;;3.05;2.75;;;23.80;60.10;;;;;;5069108;28;20131;-72
2022/06/30 01:22:54;;;;;;;4.85;2.67;;;23.80;60.10;;;;;;5068577;28;20052;-72
2022/06/30 01:25:20;;;;;;;2.97;2.63;;;23.80;60.10;;;;;;5069163;28;20131;-73
2022/06/30 01:27:47;;;;;;;4.45;2.47;;;23.70;60.10;;;;;;5068823;28;20827;-73
2022/06/30 01:30:14;;;;;;;2.63;2.42;;;23.80;60.20;;;;;;5056414;28;20140;-73
2022/06/30 01:32:41;;;;;;;2.70;2.50;;;23.80;60.10;;;;;;5053659;28;20560;-73
2022/06/30 01:35:08;;;;;;;2.80;2.50;;;23.80;60.20;;;;;;5067657;28;20076;-73
2022/06/30 01:37:45;;;;;;;3.00;2.20;;;23.70;60.10;;;;;;5068956;28;20067;-73
2022/06/30 01:40:13;;;;;;;2.92;2.50;;;23.80;60.10;;;;;;5068816;28;20091;-73
2022/06/30 01:42:40;;;;;;;2.70;2.50;;;23.70;60.10;;;;;;5068465;28;20056;-73
2022/06/30 01:45:07;;;;;;;2.70;2.50;;;23.70;60.10;;;;;;5049940;28;20516;-73
2022/06/30 01:47:34;;;;;;;2.60;2.40;;;23.70;60.10;;;;;;5053236;28;20516;-73
2022/06/30 01:50:01;;;;;;;3.72;2.38;;;23.60;60.10;;;;;;5068238;28;20048;-72
2022/06/30 01:52:27;;;;;;;2.83;2.53;;;23.70;60.10;;;;;;5068300;28;20052;-72
2022/06/30 01:54:54;;;;;;;2.55;2.28;;;23.70;60.10;;;;;;5068229;28;20401;-73
2022/06/30 01:57:22;;;;;;;3.25;2.10;;;23.70;60.10;;;;;;5069911;28;20131;-73
2022/06/30 01:59:49;;;;;;;2.53;2.30;;;23.70;60.10;;;;;;5051387;28;20421;-72
2022/06/30 02:02:15;;;;;;;2.35;1.98;;;23.70;60.20;;;;;;5061430;28;20056;-72
2022/06/30 02:04:48;;;;;;;3.28;2.50;;;23.70;60.10;;;;;;5067917;28;20598;-72
2022/06/30 02:07:14;;;;;;;2.47;2.28;;;23.70;60.10;;;;;;5069346;28;20156;-73
2022/06/30 02:09:41;;;;;;;2.80;2.30;;;23.60;60.10;;;;;;5068067;28;20760;-73
2022/06/30 02:14:55;;;;;;;2.42;2.22;;;23.60;60.10;;;;;;5068024;28;20512;-73
2022/06/30 02:17:22;;;;;;;3.22;2.42;;;23.60;60.10;;;;;;5067627;28;20076;-73
2022/06/30 02:19:49;;;;;;;3.38;2.30;;;23.60;60.10;;;;;;5068135;28;20052;-73
2022/06/30 02:22:16;;;;;;;2.72;2.20;;;23.60;60.10;;;;;;5067920;28;20063;-73
2022/06/30 02:24:42;;;;;;;2.42;2.22;;;23.60;60.10;;;;;;5069161;28;20044;-73
2022/06/30 02:27:10;;;;;;;2.40;2.20;;;23.60;60.10;;;;;;5062826;28;20073;-73
2022/06/30 02:29:36;;;;;;;2.60;2.40;;;23.60;60.10;;;;;;5047758;28;20110;-73
2022/06/30 02:32:05;;;;;;;2.60;2.30;;;23.60;60.10;;;;;;5047902;28;20433;-73
2022/06/30 02:34:32;;;;;;;2.40;2.20;;;23.50;60.10;;;;;;5047782;28;20089;-73
2022/06/30 02:36:59;;;;;;;3.22;2.50;;;23.50;60.10;;;;;;5047582;28;20060;-73
2022/06/30 02:39:25;;;;;;;2.63;2.42;;;23.60;60.10;;;;;;5047676;28;20554;-73
2022/06/30 02:41:52;;;;;;;3.13;2.20;;;23.50;60.10;;;;;;5057011;28;20186;-73
2022/06/30 02:44:19;;;;;;;2.40;2.20;;;23.50;60.10;;;;;;5067340;28;20528;-72
2022/06/30 02:46:48;;;;;;;2.53;2.33;;;23.50;60.10;;;;;;5066926;28;20098;-72
2022/06/30 02:49:16;;;;;;;2.42;2.22;;;23.50;60.10;;;;;;5067035;28;20114;-72
2022/06/30 02:51:43;;;;;;;2.97;2.20;;;23.50;60.10;;;;;;5067463;28;20080;-73
2022/06/30 02:54:10;;;;;;;2.72;2.40;;;23.50;60.10;;;;;;5068573;28;20058;-73
2022/06/30 02:56:36;;;;;;;2.35;2.10;;;23.50;60.10;;;;;;5068156;28;20147;-73
2022/06/30 02:59:03;;;;;;;2.33;2.13;;;23.50;60.10;;;;;;5067521;28;20056;-73
2022/06/30 03:01:30;;;;;;;3.20;2.35;;;23.50;60.10;;;;;;5067063;28;20408;-73
2022/06/30 03:03:56;;;;;;;2.50;2.22;;;23.50;60.20;;;;;;5066590;28;20067;-73
2022/06/30 03:06:26;;;;;;;3.88;2.60;;;23.50;60.20;;;;;;5067731;28;20059;-73
2022/06/30 03:08:53;;;;;;;3.22;2.15;;;23.40;60.10;;;;;;5067588;28;20052;-73
2022/06/30 03:11:20;;;;;;;3.25;2.40;;;23.40;60.10;;;;;;5066335;28;20386;-73
2022/06/30 03:13:46;;;;;;;2.55;2.20;;;23.40;60.20;;;;;;5067084;28;20056;-73
2022/06/30 03:16:13;;;;;;;2.92;2.50;;;23.40;60.20;;;;;;5068147;28;20045;-73
2022/06/30 03:18:40;;;;;;;4.07;2.33;;;23.40;60.20;;;;;;5067200;28;20057;-73
2022/06/30 03:21:07;;;;;;;5.15;2.50;;;23.40;60.20;;;;;;5067324;28;20464;-73
2022/06/30 03:23:35;;;;;;;2.47;2.17;;;23.40;60.20;;;;;;5067198;28;20067;-73
2022/06/30 03:26:01;;;;;;;2.97;2.58;;;23.40;60.20;;;;;;5057178;28;20053;-73
2022/06/30 03:28:28;;;;;;;2.83;2.20;;;23.30;60.10;;;;;;5047086;28;20429;-73
2022/06/30 03:30:55;;;;;;;2.97;2.28;;;23.30;60.20;;;;;;5046987;28;20052;-73
2022/06/30 03:33:22;;;;;;;2.85;2.30;;;23.30;60.10;;;;;;5048060;28;20053;-73
2022/06/30 03:35:49;;;;;;;3.55;2.25;;;23.30;60.10;;;;;;5047214;28;20139;-73
2022/06/30 03:38:16;;;;;;;2.20;2.00;;;23.30;60.10;;;;;;5046885;28;20387;-73
2022/06/30 03:40:44;;;;;;;2.30;2.10;;;23.30;60.10;;;;;;5060341;28;20059;-73
2022/06/30 03:43:10;;;;;;;2.65;2.20;;;23.30;60.10;;;;;;5066752;28;20049;-73
2022/06/30 03:45:37;;;;;;;3.00;2.25;;;23.30;60.10;;;;;;5068255;28;20048;-73
2022/06/30 03:48:05;;;;;;;2.47;2.28;;;23.30;60.10;;;;;;5068048;28;20083;-73
2022/06/30 03:50:31;;;;;;;2.45;2.25;;;23.30;60.10;;;;;;5067130;28;20082;-73
2022/06/30 03:52:58;;;;;;;2.65;2.45;;;23.30;60.10;;;;;;5066852;28;20066;-73
2022/06/30 03:55:25;;;;;;;2.85;2.53;;;23.30;60.10;;;;;;5060006;28;20394;-73
2022/06/30 03:57:53;;;;;;;2.22;2.03;;;23.30;60.10;;;;;;5050667;28;20508;-73
2022/06/30 04:00:20;;;;;;;2.30;2.10;;;23.30;60.10;;;;;;5070675;28;20131;-73
2022/06/30 04:02:47;;;;;;;2.35;2.15;;;23.30;60.00;;;;;;5069637;28;20143;-73
2022/06/30 04:05:14;;;;;;;2.85;2.10;;;23.30;60.10;;;;;;5070599;28;20056;-73
2022/06/30 04:07:41;;;;;;;2.47;2.00;;;23.30;60.10;;;;;;5070601;28;20044;-73
2022/06/30 04:10:08;;;;;;;2.40;2.20;;;23.30;60.10;;;;;;5069533;28;20086;-72
2022/06/30 04:12:35;;;;;;;5.25;2.78;;;23.20;60.00;;;;;;5070276;28;20056;-73
2022/06/30 04:15:04;;;;;;;3.70;2.08;;;23.30;60.10;;;;;;5071582;28;20624;-73
2022/06/30 04:17:33;;;;;;;3.45;2.30;;;23.30;60.10;;;;;;5070021;28;20485;-73
2022/06/30 04:20:01;;;;;;;3.60;2.28;;;23.30;60.10;;;;;;5070130;28;20103;-73
2022/06/30 04:22:28;;;;;;;3.17;2.25;;;23.30;60.10;;;;;;5070308;28;20056;-73
2022/06/30 04:24:54;;;;;;;2.58;2.13;;;23.20;60.00;;;;;;5068439;28;20044;-73
2022/06/30 04:27:21;;;;;;;2.80;1.88;;;23.20;60.10;;;;;;5070991;28;20056;-73
2022/06/30 04:29:48;;;;;;;2.20;2.00;;;23.20;60.10;;;;;;5070007;28;20048;-73
2022/06/30 04:35:00;;;;;;;2.28;2.08;;;23.20;60.00;;;;;;5070191;28;20080;-73
2022/06/30 04:37:27;;;;;;;2.47;2.00;;;23.20;60.10;;;;;;5069618;28;20048;-73
2022/06/30 04:41:23;;;;;;;2.88;2.10;;;23.20;60.10;;;;;;5068188;28;20135;-73
2022/06/30 04:42:39;;;;;;;2.40;2.20;;;23.20;60.00;;;;;;5049356;28;20057;-73
2022/06/30 04:45:07;;;;;;;2.30;2.10;;;23.20;60.10;;;;;;5051209;28;20101;-73
2022/06/30 04:47:36;;;;;;;2.38;2.10;;;23.20;60.00;;;;;;5055293;28;20040;-75
2022/06/30 04:50:03;;;;;;;4.30;1.90;;;23.20;60.00;;;;;;5059645;28;20123;-75
2022/06/30 04:52:30;;;;;;;2.30;1.90;;;23.30;59.90;;;;;;5058407;28;20486;-75
2022/06/30 04:54:57;;;;;;;2.53;2.00;;;23.30;59.90;;;;;;5058677;28;20128;-74
2022/06/30 04:57:23;;;;;;;2.05;1.85;;;23.20;59.80;;;;;;5058684;28;20405;-75
2022/06/30 04:59:50;;;;;;;2.70;1.98;;;23.30;59.80;;;;;;5060230;28;20058;-74
2022/06/30 05:02:17;;;;;;;2.15;1.95;;;23.30;59.70;;;;;;5057440;28;20052;-74
2022/06/30 05:04:45;;;;;;;2.15;1.95;;;23.30;59.70;;;;;;5058730;28;20546;-74
2022/06/30 05:07:12;;;;;;;2.20;1.83;;;23.30;59.70;;;;;;5060369;28;20052;-74
2022/06/30 05:09:39;;;;;;;2.17;1.98;;;23.30;59.70;;;;;;5056562;28;20137;-75
2022/06/30 05:12:06;;;;;;;2.45;2.03;;;23.20;59.60;;;;;;5058708;28;20062;-75
2022/06/30 05:14:33;;;;;;;2.70;2.00;;;23.30;59.60;;;;;;5062704;28;20068;-75
2022/06/30 05:17:00;;;;;;;2.10;1.90;;;23.30;59.50;;;;;;5058431;28;20560;-76
2022/06/30 05:19:27;;;;;;;3.08;2.00;;;23.30;59.50;;;;;;5058445;28;20119;-76
2022/06/30 05:21:55;;;;;;;2.67;2.05;;;23.40;59.50;;;;;;5060149;28;20053;-76
2022/06/30 05:27:07;;;;;;;2.20;2.00;;;23.30;59.40;;;;;;5060174;28;20040;-75
2022/06/30 05:29:33;;;;;;;2.00;1.83;;;23.30;59.40;;;;;;5055132;28;20059;-76
2022/06/30 05:32:00;;;;;;;2.35;2.10;;;23.30;59.30;;;;;;5060736;28;20076;-76
2022/06/30 05:34:27;;;;;;;3.03;1.75;;;23.40;59.40;;;;;;5073706;28;20051;-74
2022/06/30 05:36:55;;;;;;;3.65;2.00;;;23.40;59.20;;;;;;5068840;28;20044;-76
2022/06/30 05:39:22;;;;;;;2.25;2.00;;;23.50;59.40;;;;;;5064812;28;20049;-74
2022/06/30 05:41:48;;;;;;;3.05;2.00;;;23.40;59.40;;;;;;5063225;28;20053;-73
2022/06/30 05:44:15;;;;;;;2.47;1.75;;;23.50;59.60;;;;;;5053992;28;20087;-74
2022/06/30 05:46:43;;;;;;;3.38;2.08;;;23.50;59.70;;;;;;5057982;28;20053;-74
2022/06/30 05:49:10;;;;;;;3.95;2.00;;;23.60;59.70;;;;;;5059293;28;20063;-74
2022/06/30 05:51:37;;;;;;;3.20;2.42;;;23.60;59.70;;;;;;5058967;28;20592;-74
2022/06/30 05:54:05;;;;;;;4.20;2.00;;;23.60;59.60;;;;;;5060339;28;20049;-74
2022/06/30 05:56:32;;;;;;;2.28;2.08;;;23.70;59.60;;;;;;5060138;28;20135;-74
2022/06/30 05:58:59;;;;;;;2.20;2.00;;;23.80;59.40;;;;;;5065451;28;20063;-71
2022/06/30 06:01:25;;;;;;;2.22;1.92;;;23.90;59.30;;;;;;5067950;28;20575;-73
2022/06/30 06:03:52;;;;;;;4.35;1.95;;;24.00;59.20;;;;;;5066128;28;20054;-74
2022/06/30 06:06:19;;;;;;;2.45;1.98;;;24.10;59.00;;;;;;5068572;28;20048;-73
2022/06/30 06:08:46;;;;;;;4.13;1.90;;;24.20;58.70;;;;;;5049999;28;20053;-73
2022/06/30 06:11:14;;;;;;;3.20;1.88;;;24.30;58.60;;;;;;5048338;28;20061;-72
2022/06/30 06:13:40;;;;;;;6.30;2.08;;;24.40;58.30;;;;;;5048198;28;20049;-72
2022/06/30 06:16:07;;;;;;;2.50;1.98;;;24.60;58.10;;;;;;5065317;28;20088;-74
2022/06/30 06:18:34;;;;;;;3.58;2.25;;;24.70;57.90;;;;;;5068972;28;20040;-73
2022/06/30 06:21:01;;;;;;;2.80;1.80;;;24.70;57.60;;;;;;5065797;28;20052;-72
2022/06/30 06:23:28;;;;;;;5.72;2.47;;;24.80;57.40;;;;;;5066780;28;20655;-73
2022/06/30 06:25:54;;;;;;;4.78;2.05;;;24.90;57.30;;;;;;5068123;28;20147;-73
2022/06/30 06:31:07;;;;;;;4.03;1.95;;;25.20;57.00;;;;;;5061072;28;20048;-72
2022/06/30 06:33:34;;;;;;;3.88;2.10;;;25.30;56.80;;;;;;5047921;28;20091;-72
2022/06/30 06:36:01;;;;;;;4.22;2.10;;;25.40;56.60;;;;;;5047721;28;20052;-72
2022/06/30 06:38:28;;;;;;;6.22;2.00;;;25.50;56.50;;;;;;5048185;28;20413;-72
2022/06/30 06:40:54;;;;;;;5.80;2.10;;;25.60;56.30;;;;;;5048271;28;20060;-72
2022/06/30 06:43:23;;;;;;;3.42;1.90;;;25.80;56.30;;;;;;5052479;28;20047;-72
2022/06/30 06:45:49;;;;;;;3.70;2.05;;;25.80;56.10;;;;;;5058180;28;20052;-72
2022/06/30 06:48:16;;;;;;;3.60;1.98;;;25.80;55.90;;;;;;5055205;28;20048;-72
2022/06/30 06:50:43;;;;;;;2.58;1.85;;;26.00;55.90;;;;;;5059726;28;20431;-72
2022/06/30 06:53:09;;;;;;;1.90;1.60;;;26.10;55.80;;;;;;5059303;28;20051;-72
2022/06/30 06:55:36;;;;;;;3.22;2.10;;;26.20;55.70;;;;;;5056855;28;20064;-72
2022/06/30 06:58:05;;;;;;;3.00;2.00;;;26.20;55.50;;;;;;5057128;28;20043;-72
2022/06/30 07:00:33;;;;;;;3.67;2.13;;;26.30;55.50;;;;;;5056453;28;20048;-72
2022/06/30 07:03:00;;;;;;;3.22;2.00;;;26.40;55.40;;;;;;5057687;28;20517;-72
2022/06/30 07:05:27;;;;;;;2.53;2.00;;;26.40;55.20;;;;;;5067582;28;20131;-72
2022/06/30 07:07:58;;;;;;;2.88;1.80;;;26.50;55.10;;;;;;5067413;28;20052;-72
2022/06/30 07:10:25;;;;;;;3.10;2.00;;;26.60;55.00;;;;;;5067700;28;20063;-72
2022/06/30 07:12:51;;;;;;;2.22;1.90;;;26.70;55.40;;;;;;5068213;28;20045;-73
2022/06/30 07:15:19;;;;;;;3.13;2.03;;;26.80;54.70;;;;;;5059310;28;20053;-72
2022/06/30 07:17:47;;;;;;;4.22;1.70;;;26.90;54.60;;;;;;5047605;28;20079;-73
2022/06/30 07:20:13;;;;;;;4.28;1.60;;;26.90;54.40;;;;;;5065270;28;20087;-73
2022/06/30 07:22:40;;;;;;;2.58;1.80;;;27.00;54.40;;;;;;5067422;28;20060;-74
2022/06/30 07:25:08;;;;;;;3.05;1.90;;;27.10;54.40;;;;;;5067118;28;20132;-73
2022/06/30 07:27:35;;;;;;;2.30;1.80;;;27.10;54.20;;;;;;5062666;28;20087;-73
2022/06/30 07:30:02;;;;;;;1.98;1.77;;;27.20;54.20;;;;;;5056986;28;20486;-73
2022/06/30 07:32:29;;;;;;;2.75;2.03;;;27.20;54.10;;;;;;5055698;28;20130;-74
2022/06/30 07:34:57;;;;;;;2.72;1.80;;;27.20;53.90;;;;;;5071308;28;20392;-73
2022/06/30 07:37:24;;;;;;;10.20;3.05;;;27.30;53.90;;;;;;5071117;28;20055;-73
2022/06/30 07:39:50;;;;;;;12.98;6.72;;;27.40;53.80;;;;;;5071328;28;20800;-74
2022/06/30 07:42:17;;;;;;;13.95;5.60;;;27.40;53.80;;;;;;5071185;28;20131;-73
2022/06/30 07:44:44;;;;;;;10.40;4.85;;;27.40;53.80;;;;;;5070532;28;20525;-74
2022/06/30 07:47:11;;;;;;;9.27;4.43;;;27.30;53.90;;;;;;5054316;28;20053;-73
2022/06/30 07:49:38;;;;;;;9.35;4.00;;;27.40;54.00;;;;;;5070967;28;20067;-73
2022/06/30 07:52:06;;;;;;;38.40;14.65;;;27.40;54.00;;;;;;5071055;28;20057;-73
2022/06/30 07:54:33;;;;;;;41.05;14.95;;;27.40;54.00;;;;;;5072191;28;20049;-73
2022/06/30 07:57:00;;;;;;;35.70;13.88;;;27.40;54.00;;;;;;5070952;28;20117;-74
2022/06/30 07:59:27;;;;;;;34.80;13.45;;;27.50;54.00;;;;;;5071789;28;20048;-73
2022/06/30 08:01:53;;;;;;;52.90;19.45;;;27.50;54.00;;;;;;5068557;28;20657;-74
2022/06/30 08:04:20;;;;;;;43.50;16.63;;;27.50;54.00;;;;;;5069733;28;20119;-73
2022/06/30 08:06:47;;;;;;;38.97;14.48;;;27.50;53.90;;;;;;5069439;28;20056;-73
2022/06/30 08:09:15;;;;;;;35.95;14.98;;;27.50;53.90;;;;;;5060583;28;20136;-73
2022/06/30 08:11:41;;;;;;;37.60;13.75;;;29.40;55.20;;;;;;5070598;28;20591;-73
2022/06/30 08:14:08;;;;;;;35.67;13.45;;;27.60;53.90;;;;;;5053457;28;20056;-72
2022/06/30 08:16:35;;;;;;;29.88;13.20;;;27.60;53.80;;;;;;5050364;28;20132;-72
2022/06/30 08:19:03;;;;;;;33.50;12.93;;;27.70;53.90;;;;;;5052669;28;20098;-72
2022/06/30 08:21:29;;;;;;;31.38;13.00;;;27.70;53.70;;;;;;5059660;28;20497;-72
2022/06/30 08:23:56;;;;;;;28.92;12.45;;;27.70;53.60;;;;;;5059264;28;20127;-72
2022/06/30 08:26:24;;;;;;;27.45;11.82;;;27.70;53.60;;;;;;5060656;28;20131;-74
2022/06/30 08:28:51;;;;;;;25.83;11.10;;;27.70;53.60;;;;;;5063191;28;20055;-73
2022/06/30 08:31:17;;;;;;;26.65;10.68;;;27.70;54.40;;;;;;5064314;28;20052;-72
2022/06/30 08:33:44;;;;;;;29.13;10.45;;;27.70;53.80;;;;;;5063117;28;20053;-73
2022/06/30 08:36:11;;;;;;;21.75;9.70;;;27.70;53.70;;;;;;5058912;28;20057;-72
2022/06/30 08:38:38;;;;;;;26.17;10.57;;;27.70;53.70;;;;;;5052155;28;20458;-73
2022/06/30 08:43:50;;;;;;;22.97;8.93;;;27.60;54.10;;;;;;5069524;28;20045;-73
2022/06/30 08:46:17;;;;;;;21.88;9.00;;;27.70;54.10;;;;;;5070166;28;20055;-73
2022/06/30 08:48:43;;;;;;;20.23;8.57;;;27.70;54.00;;;;;;5069036;28;20052;-73
2022/06/30 08:51:10;;;;;;;19.67;8.77;;;27.70;53.90;;;;;;5070168;28;20062;-73
2022/06/30 08:53:40;;;;;;;17.42;8.50;;;27.70;53.80;;;;;;5069745;28;20052;-73
2022/06/30 08:56:07;;;;;;;18.63;8.60;;;27.80;54.40;;;;;;5068470;28;20080;-74
2022/06/30 08:58:34;;;;;;;17.98;8.07;;;27.80;53.80;;;;;;5069258;28;20058;-73
2022/06/30 09:01:02;;;;;;;19.27;7.53;;;27.80;53.70;;;;;;5069428;28;20051;-73
2022/06/30 09:03:29;;;;;;;16.95;7.55;;;27.80;53.60;;;;;;5068393;28;20052;-73
2022/06/30 09:05:56;;;;;;;13.55;6.60;;;27.80;53.50;;;;;;5049587;28;20053;-73
2022/06/30 09:08:23;;;;;;;14.27;6.95;;;27.70;53.40;;;;;;5049423;28;20055;-73
2022/06/30 09:10:50;;;;;;;13.38;6.85;;;27.70;53.40;;;;;;5049333;28;20060;-73
2022/06/30 09:13:17;;;;;;;13.05;6.38;;;27.70;53.50;;;;;;5050676;28;20144;-73
2022/06/30 09:15:44;;;;;;;12.10;6.22;;;27.60;53.40;;;;;;5056024;28;20516;-73
2022/06/30 09:18:22;;;;;;;13.30;6.35;;;27.60;53.70;;;;;;5062490;28;20051;-73
2022/06/30 09:20:49;;;;;;;10.15;5.85;;;27.70;53.90;;;;;;5067908;28;20052;-74
2022/06/30 09:23:20;;;;;;;13.65;6.40;;;27.70;53.90;;;;;;5049037;28;20416;-73
2022/06/30 09:25:48;;;;;;;13.57;6.22;;;27.80;53.90;;;;;;5049335;28;20060;-73
2022/06/30 09:28:15;;;;;;;11.23;6.40;;;27.80;53.80;;;;;;5048841;28;20049;-73
2022/06/30 09:30:42;;;;;;;10.85;6.00;;;27.80;53.80;;;;;;5049106;28;20128;-73
2022/06/30 09:33:09;;;;;;;11.18;5.72;;;27.80;53.80;;;;;;5051038;28;20053;-73
2022/06/30 09:35:38;;;;;;;9.20;5.95;;;27.90;53.80;;;;;;5068755;28;20131;-73
2022/06/30 09:38:06;;;;;;;10.68;5.63;;;27.90;53.80;;;;;;5068716;28;20044;-74
2022/06/30 09:40:34;;;;;;;10.13;5.30;;;27.90;53.80;;;;;;5058205;28;20118;-72
2022/06/30 09:43:01;;;;;;;10.50;5.38;;;27.90;53.80;;;;;;5048445;28;20060;-73
2022/06/30 09:45:36;;;;;;;11.73;5.55;;;27.90;53.70;;;;;;5049120;28;20063;-73
2022/06/30 09:48:03;;;;;;;9.73;5.47;;;27.90;53.80;;;;;;5057845;28;20136;-74
2022/06/30 09:50:29;;;;;;;10.18;5.38;;;27.90;53.80;;;;;;5068335;28;20157;-73
2022/06/30 09:53:12;;;;;;;13.40;5.22;;;27.90;53.90;;;;;;5069846;28;20410;-73
2022/06/30 09:55:44;;;;;;;9.45;5.47;;;28.00;54.10;;;;;;5060972;28;20160;-73
2022/06/30 09:58:11;;;;;;;10.60;5.55;;;27.90;54.10;;;;;;5057985;28;20539;-72
2022/06/30 10:00:49;;;;;;;10.15;5.55;;;27.80;54.20;;;;;;5058523;28;20143;-72
2022/06/30 10:03:17;;;;;;;9.50;5.05;;;27.80;54.20;;;;;;5056443;28;20082;-72
2022/06/30 10:05:44;;;;;;;8.70;5.00;;;27.80;54.30;;;;;;5057128;28;20060;-72
2022/06/30 10:08:13;;;;;;;7.15;4.80;;;27.80;54.30;;;;;;5055459;28;20060;-73
2022/06/30 10:10:41;;;;;;;10.75;5.38;;;27.70;54.30;;;;;;5057700;28;20045;-74
2022/06/30 10:13:08;;;;;;;7.55;4.53;;;27.70;54.30;;;;;;5041632;28;20517;-74
2022/06/30 10:15:35;;;;;;;8.63;5.07;;;27.70;54.40;;;;;;5059468;28;20468;-74
2022/06/30 10:18:02;;;;;;;8.32;5.60;;;27.70;54.40;;;;;;5059563;28;20554;-72
2022/06/30 10:20:31;;;;;;;11.00;5.10;;;27.60;54.40;;;;;;5058965;28;20123;-73
2022/06/30 10:22:57;;;;;;;15.68;5.38;;;27.60;54.40;;;;;;5058696;28;20079;-73
2022/06/30 10:25:26;;;;;;;15.95;5.93;;;27.60;54.50;;;;;;5048440;28;20055;-73
2022/06/30 10:27:52;;;;;;;14.82;6.88;;;27.60;54.50;;;;;;5052083;28;20095;-73
2022/06/30 10:30:21;;;;;;;20.83;7.95;;;27.60;54.50;;;;;;5057236;28;20052;-74
2022/06/30 10:32:53;;;;;;;15.77;7.28;;;27.50;54.40;;;;;;5067714;28;20056;-75
2022/06/30 10:35:23;;;;;;;21.15;6.75;;;27.50;54.40;;;;;;5067776;28;20052;-74
2022/06/30 10:37:55;;;;;;;15.57;6.45;;;27.50;54.40;;;;;;5067886;28;20052;-75
2022/06/30 10:40:30;;;;;;;17.63;6.57;;;27.40;54.40;;;;;;5058543;28;20131;-74
2022/06/30 10:42:57;;;;;;;18.02;6.60;;;27.40;54.50;;;;;;5047802;28;20514;-74
2022/06/30 10:45:34;;;;;;;13.13;6.82;;;27.30;54.50;;;;;;5047973;28;20053;-74
2022/06/30 10:48:02;;;;;;;15.85;6.63;;;27.30;54.60;;;;;;5055056;28;20063;-74
2022/06/30 10:50:32;;;;;;;14.52;6.70;;;27.30;54.70;;;;;;5050962;28;20060;-73
2022/06/30 10:52:59;;;;;;;13.48;6.10;;;27.20;54.70;;;;;;5067543;28;20059;-73
2022/06/30 10:55:25;;;;;;;14.18;6.10;;;27.20;54.80;;;;;;5050988;28;20135;-73
2022/06/30 10:58:06;;;;;;;13.60;5.90;;;27.20;54.90;;;;;;5047390;28;20452;-74
2022/06/30 11:00:46;;;;;;;13.40;6.18;;;27.20;54.80;;;;;;5047360;28;20450;-73
2022/06/30 11:03:59;;;;;;;14.35;5.93;;;27.10;54.80;;;;;;5047122;28;20064;-73
2022/06/30 11:06:57;;;;;;;12.32;5.38;;;27.10;54.90;;;;;;5047115;28;20049;-73
2022/06/30 11:10:00;;;;;;;10.77;5.00;;;27.10;55.00;;;;;;5064064;28;20040;-73
2022/06/30 11:12:59;;;;;;;12.13;5.72;;;27.10;55.00;;;;;;5050221;28;20084;-73
2022/06/30 11:15:52;;;;;;;11.90;5.22;;;27.10;55.10;;;;;;5061611;28;20131;-73
2022/06/30 11:18:20;;;;;;;10.45;4.97;;;27.00;55.10;;;;;;5061241;28;20049;-73
2022/06/30 11:20:50;;;;;;;10.25;5.10;;;27.00;55.30;;;;;;5054281;28;20155;-73
2022/06/30 11:23:20;;;;;;;11.15;5.13;;;27.00;55.30;;;;;;5056170;28;20045;-73
2022/06/30 11:28:32;;;;;;;10.88;4.88;;;27.00;55.50;;;;;;5062220;28;20080;-73
2022/06/30 11:31:00;;;;;;;8.20;4.68;;;26.90;55.60;;;;;;5061464;28;20079;-73
2022/06/30 11:33:27;;;;;;;8.75;5.10;;;27.00;55.70;;;;;;5047628;28;20527;-73
2022/06/30 11:36:09;;;;;;;8.25;4.80;;;26.90;55.60;;;;;;5054836;28;20472;-73
2022/06/30 11:38:36;;;;;;;11.02;4.95;;;26.90;55.50;;;;;;5056365;28;20124;-74
2022/06/30 11:43:56;;;;;;;;;;;26.90;55.60;;;;;;5065251;28;20045;-73
2022/06/30 11:46:25;;;;;;;8.98;4.65;;;26.90;55.70;;;;;;5067580;28;19920;-73
2022/06/30 11:48:51;;;;;;;8.35;4.63;;;26.90;55.90;;;;;;5068133;28;20507;-73
2022/06/30 11:51:18;;;;;;;8.65;4.57;;;26.90;55.80;;;;;;5067104;28;20131;-73
2022/06/30 11:53:45;;;;;;;8.70;4.60;;;26.90;55.90;;;;;;5055380;28;20139;-73
2022/06/30 11:56:12;;;;;;;8.30;4.68;;;26.90;55.90;;;;;;5061321;28;20135;-73
2022/06/30 11:58:39;;;;;;;8.40;4.68;;;26.90;55.90;;;;;;5058336;28;20132;-73
2022/06/30 12:01:15;;;;;;;7.03;4.53;;;26.90;55.90;;;;;;5055120;28;20440;-73
2022/06/30 12:03:44;;;;;;;9.05;4.65;;;26.90;55.80;;;;;;5055966;28;20060;-73
2022/06/30 12:06:12;;;;;;;11.43;4.47;;;26.90;55.90;;;;;;5055691;28;20049;-72
2022/06/30 12:08:39;;;;;;;8.15;4.75;;;26.90;55.90;;;;;;5055141;28;20059;-72
2022/06/30 12:11:06;;;;;;;7.07;4.40;;;26.90;55.90;;;;;;5047070;28;20067;-73
2022/06/30 12:13:33;;;;;;;8.60;4.70;;;26.90;56.00;;;;;;5054174;28;20072;-73
2022/06/30 12:16:03;;;;;;;8.48;4.53;;;26.90;56.10;;;;;;5039085;28;20041;-73
2022/06/30 12:18:30;;;;;;;9.75;4.13;;;26.90;56.10;;;;;;5057219;28;20062;-73
2022/06/30 12:20:58;;;;;;;6.57;4.35;;;26.80;56.10;;;;;;5060673;28;20412;-73
2022/06/30 12:23:25;;;;;;;7.07;4.40;;;26.80;56.10;;;;;;5068853;28;20063;-73
2022/06/30 12:25:51;;;;;;;6.35;4.43;;;26.90;56.20;;;;;;5068179;28;20052;-74
2022/06/30 12:28:19;;;;;;;6.53;4.32;;;26.80;56.10;;;;;;5070177;28;20140;-73
2022/06/30 12:30:45;;;;;;;7.18;4.25;;;26.80;56.20;;;;;;5070576;28;20118;-74
2022/06/30 12:33:12;;;;;;;8.18;4.53;;;26.80;56.20;;;;;;5069492;28;20079;-73
2022/06/30 12:35:39;;;;;;;6.53;4.13;;;26.80;56.30;;;;;;5069346;28;20049;-73
2022/06/30 12:38:11;;;;;;;7.40;4.05;;;26.80;56.30;;;;;;5068472;28;20711;-73
2022/06/30 12:40:38;;;;;;;7.07;4.00;;;26.70;56.30;;;;;;5068363;28;20044;-73
2022/06/30 12:43:05;;;;;;;7.32;4.32;;;26.70;56.40;;;;;;5069347;28;20063;-73
2022/06/30 12:45:35;;;;;;;9.65;4.28;;;26.70;56.40;;;;;;5070209;28;20092;-73
2022/06/30 12:48:02;;;;;;;5.35;3.83;;;26.70;56.40;;;;;;5069997;28;20071;-73
2022/06/30 12:50:29;;;;;;;7.60;4.22;;;26.80;56.50;;;;;;5068904;28;20156;-73
2022/06/30 12:52:55;;;;;;;5.95;3.58;;;26.70;56.40;;;;;;5069114;28;20135;-73
2022/06/30 12:55:24;;;;;;;7.32;4.00;;;26.70;56.50;;;;;;5069966;28;20279;-73
2022/06/30 12:57:51;;;;;;;5.93;3.83;;;26.70;56.50;;;;;;5069612;28;20049;-73
2022/06/30 13:00:18;;;;;;;5.60;3.95;;;26.70;56.50;;;;;;5069569;28;20056;-73
2022/06/30 13:02:45;;;;;;;5.20;3.60;;;26.60;56.50;;;;;;5070380;28;20510;-73
2022/06/30 13:05:12;;;;;;;6.10;4.20;;;26.70;56.70;;;;;;5068697;28;20056;-73
2022/06/30 13:07:39;;;;;;;6.55;4.00;;;26.70;56.70;;;;;;5069544;28;20529;-73
2022/06/30 13:10:06;;;;;;;5.60;3.85;;;26.70;56.70;;;;;;5069504;28;20059;-72